Hilo, HI (96720)

5:32 AM HST on September 23, 2014 (GMT -1000)
Hilo International | Change Station
CLOSE
Current Station
Airport
Location: Hilo,
Elevation: 36 ft
Nearby Weather Stations

Elev 36 ft 19.72 °N, 155.05 °W | Updated 25 minutes ago

Overcast
Overcast
73 °F
Feels Like 73 °F
N
4
Wind Variable Wind from SW

Today
High -- | Low -- °F
--% Chance of Precip.
Yesterday
High -- | Low -- °F
Precip. -- in
6:09 AM 6:15 PM
Waning Crescent, 0% visible
Pressure 30.03 in
Visibility 10.0 miles
Clouds Mostly Cloudy 2800 ft
Mostly Cloudy 3500 ft
Overcast 4400 ft
Dew Point 68 °F
Humidity 84%
Rainfall 0.13 in
Snow Depth Not available.
UV 0 out of 12
Pollen Not available.
PM2.5 Good
Flu Activity Not available.
SPECI PHTO 231507Z 23003KT 10SM BKN028 BKN035 OVC044 23/20 A3003 RMK AO2 T02280200

More Conditions Fewer Conditions

Pressure 30.03 in
Visibility 10.0 miles
Clouds Mostly Cloudy 2800 ft
Mostly Cloudy 3500 ft
Overcast 4400 ft
Dew Point 68 °F
Humidity 84%
Rainfall 0.13 in
Snow Depth Not available.
UV 0 out of 12
Pollen Not available.
PM2.5 Good
Flu Activity Not available.
SPECI PHTO 231507Z 23003KT 10SM BKN028 BKN035 OVC044 23/20 A3003 RMK AO2 T02280200

More Conditions Fewer Conditions

10-Day Weather Forecast

Almanac

Astronomy

Sep. 23, 2014 Rise Set
Actual Time 6:09 AM HST 6:15 PM HST
Civil Twilight 5:47 AM HST 6:37 PM HST
Nautical Twilight 5:22 AM HST 7:02 PM HST
Astronomical Twilight 4:56 AM HST 7:28 PM HST
Moon 5:44 AM HST 6:03 PM HST
Length of Visible Light 12h 49m
Length of Day
12h 05m
Tomorrow will be 1m 6s shorter.
Waning Crescent, 0% of the Moon is Illuminated
Today
Waning Crescent
Sep 24
New
Oct 1
First Quarter
Oct 8
Full
Oct 15
Last Quarter

Today's Extremes

State Highs State Lows

Community

WunderPhotos

Upload Photos

1,755,725 photos uploaded!

WunderBlogs® & News

Nearby

Air Quality

  Air Quality AQ Index Pollutant
Yesterday Good
PM2.5
Current Good
PM2.5

Snow Depth

Station Depth Elevation
No new snow has been reported.

Earthquake Activity

City Distance Mag. Time & Date
No recent earthquake activity has been reported nearby.
Minimum magnitude displayed is 2.5.

Coastal Water Temperatures

Place Temperature
No Stations Reporting

Nearby Weather Stations